Nearby METAR Reports

 

KCRE - North Myrtle Beach, South Carolina, USA
Distance from station: WSW 14mi, 23km
Updated: 02/21/2018 9:53am
Clear
Clear
 Wind from S
Wind: S 3 mph , 6 km/h
Temperature: 68°F , 20°C
Dew Point: 66°F , 19°C
Humidity: 94%
Barometer: 30.50 inHg , 1032.8 hPa
Clouds: Clear
Visibility: 10 miles , 16 km
2018/02/21 14:53 KCRE 211453Z 19003KT 10SM CLR 20/19 A3050 RMK AO1 SLP327 T02000189 51012
KSUT - Southport, North Carolina, USA
Distance from station: E 24mi, 38km
Updated: 02/21/2018 10:15am
Clear
Clear
 Wind from S
Wind: S 3 mph , 6 km/h
Temperature: 73°F , 23°C
Dew Point: 68°F , 20°C
Humidity: 83%
Barometer: 30.51 inHg , 1033.2 hPa
Clouds: Clear
Visibility: 10 miles , 16 km
2018/02/21 15:15 KSUT 211515Z AUTO 18003KT 10SM CLR 23/20 A3051 RMK AO2 T02270201
KCPC - Whiteville, North Carolina, USA
Distance from station: NNW 28mi, 46km
Updated: 02/21/2018 10:10am
Overcast
Overcast
 Wind from SW
Wind: SW 5 mph , 7 km/h
Temperature: 72°F , 22°C
Dew Point: 66°F , 19°C
Humidity: 83%
Barometer: 30.49 inHg , 1032.5 hPa
Clouds: Overcast
Visibility: 10 miles , 16 km
Cloud details: Partly cloudy 1900 ft
Overcast 4800 ft
2018/02/21 15:10 KCPC 211510Z AUTO 23004KT 10SM SCT019 OVC048 22/19 A3049 RMK AO2 T02200191
 
KILM - Wilmington, North Carolina, USA
Distance from station: NE 42mi, 67km
Updated: 02/21/2018 9:53am
Clear
Clear
 Wind from SSW
Wind: SSW 10 mph , 17 km/h
Temperature: 73°F , 23°C
Dew Point: 66°F , 19°C
Humidity: 78%
Barometer: 30.50 inHg , 1032.8 hPa
Clouds: Clear
Visibility: 10 miles , 16 km
2018/02/21 14:53 KILM 211453Z 21009KT 10SM CLR 23/19 A3050 RMK AO2 SLP328 T02280189 51004
KLBT - Lumberton, North Carolina, USA
Distance from station: NW 57mi, 92km
Updated: 02/21/2018 9:54am
Mostly cloudy
Mostly cloudy
 Wind from S
Wind: S 7 mph , 11 km/h
Temperature: 70°F , 21°C
Dew Point: 66°F , 19°C
Humidity: 88%
Barometer: 30.48 inHg , 1032.2 hPa
Clouds: Mostly cloudy
Visibility: 9 miles , 14 km
Cloud details: Partly cloudy 600 ft
Mostly cloudy 3100 ft
Mostly cloudy 4700 ft
2018/02/21 14:54 KLBT 211454Z AUTO 19006KT 9SM SCT006 BKN031 BKN047 21/19 A3048 RMK AO2 SLP321 T02060194 50008
KGGE - Georgetown, South Carolina, USA
Distance from station: SW 63mi, 101km
Updated: 02/21/2018 10:15am
Overcast
Overcast
 Wind from calm
Wind: Calm
Temperature: 70°F , 21°C
Dew Point: 70°F , 21°C
Humidity: 100%
Barometer: 30.50 inHg , 1032.8 hPa
Clouds: Overcast
Visibility: 10 miles , 16 km
Cloud details: Partly cloudy 2100 ft
Partly cloudy 3200 ft
Overcast 4800 ft
2018/02/21 15:15 KGGE 211515Z AUTO 00000KT 10SM SCT021 SCT032 OVC048 21/21 A3050 RMK AO2
 
KFLO - Florence, South Carolina, USA
Distance from station: WNW 73mi, 118km
Updated: 02/21/2018 9:53am
Overcast
Overcast
 Wind from varies
Wind: varies 3 mph , 6 km/h
Temperature: 68°F , 20°C
Dew Point: 66°F , 19°C
Humidity: 94%
Barometer: 30.49 inHg , 1032.5 hPa
Clouds: Overcast
Visibility: 10 miles , 16 km
Cloud details: Partly cloudy 400 ft
Overcast 4500 ft
2018/02/21 14:53 KFLO 211453Z VRB03KT 10SM SCT004 OVC045 20/19 A3049 RMK AO2 SLP322 T02000194 51010
KCTZ - Clinton, North Carolina, USA
Distance from station: N 74mi, 119km
Updated: 02/21/2018 10:15am
Overcast
Overcast
 Wind from SW
Wind: SW 3 mph , 6 km/h
Temperature: 66°F , 19°C
Dew Point: 66°F , 19°C
Humidity: 100%
Barometer: 30.50 inHg , 1032.8 hPa
Clouds: Overcast
Visibility: 10 miles , 16 km
Cloud details: Partly cloudy 200 ft
Overcast 700 ft
2018/02/21 15:15 KCTZ 211515Z AUTO 22003KT 10SM SCT002 OVC007 19/19 A3050 RMK AO2 T01920192
KFAY - Fayetteville, North Carolina, USA
Distance from station: NNW 77mi, 124km
Updated: 02/21/2018 10:22am
Mostly cloudy
Mostly cloudy
 Wind from S
Wind: S 9 mph , 15 km/h
Temperature: 73°F , 23°C
Dew Point: 66°F , 19°C
Humidity: 78%
Barometer: 30.48 inHg , 1032.2 hPa
Clouds: Mostly cloudy
Visibility: 10 miles , 16 km
Cloud details: Partly cloudy 1100 ft
Mostly cloudy 1600 ft
2018/02/21 15:22 KFAY 211522Z 19008KT 10SM SCT011 BKN016 23/19 A3048 RMK AO2 T02280194
 
KOAJ - Jacksonville, North Carolina, USA
Distance from station: NE 80mi, 129km
Updated: 02/21/2018 9:56am
Mostly cloudy
Mostly cloudy
 Wind from SW
Wind: SW 8 mph , 13 km/h
Temperature: 73°F , 23°C
Dew Point: 68°F , 20°C
Humidity: 83%
Barometer: 30.51 inHg , 1033.2 hPa
Clouds: Mostly cloudy
Visibility: 10 miles , 16 km
Cloud details: Mostly cloudy 1500 ft
Mostly cloudy 2100 ft
2018/02/21 14:56 KOAJ 211456Z AUTO 22007KT 10SM BKN015 BKN021 23/20 A3051 RMK AO2 SLP334 T02330200 50009